sensor_id;sensor_type;location;lat;lon;timestamp;pressure;altitude;pressure_sealevel;temperature;humidity
57779;BME280;43608;49.486;9.640;2022-12-10T00:00:25;97542.19;;;-0.41;89.11
57779;BME280;43608;49.486;9.640;2022-12-10T00:01:04;97553.50;;;-0.39;89.24
57779;BME280;43608;49.486;9.640;2022-12-10T00:01:35;97556.09;;;-0.39;89.38
57779;BME280;43608;49.486;9.640;2022-12-10T00:02:05;97552.63;;;-0.40;89.15
57779;BME280;43608;49.486;9.640;2022-12-10T00:02:36;97553.50;;;-0.39;89.31
57779;BME280;43608;49.486;9.640;2022-12-10T00:03:06;97553.41;;;-0.44;89.29
57779;BME280;43608;49.486;9.640;2022-12-10T00:03:37;97558.69;;;-0.41;89.31
57779;BME280;43608;49.486;9.640;2022-12-10T00:04:07;97554.25;;;-0.45;89.39
57779;BME280;43608;49.486;9.640;2022-12-10T00:04:38;97553.34;;;-0.47;89.33
57779;BME280;43608;49.486;9.640;2022-12-10T00:05:08;97554.28;;;-0.43;89.86
57779;BME280;43608;49.486;9.640;2022-12-10T00:05:39;97539.34;;;-0.52;89.57
57779;BME280;43608;49.486;9.640;2022-12-10T00:06:20;97549.06;;;-0.45;89.49
57779;BME280;43608;49.486;9.640;2022-12-10T00:06:51;97548.06;;;-0.52;89.66
57779;BME280;43608;49.486;9.640;2022-12-10T00:07:21;97561.19;;;-0.45;89.77
57779;BME280;43608;49.486;9.640;2022-12-10T00:07:51;97545.47;;;-0.50;90.01
57779;BME280;43608;49.486;9.640;2022-12-10T00:08:22;97533.25;;;-0.54;89.90
57779;BME280;43608;49.486;9.640;2022-12-10T00:08:52;97549.91;;;-0.46;89.88
57779;BME280;43608;49.486;9.640;2022-12-10T00:09:23;97519.09;;;-0.67;89.37
57779;BME280;43608;49.486;9.640;2022-12-10T00:09:53;97527.94;;;-0.59;89.51
57779;BME280;43608;49.486;9.640;2022-12-10T00:10:24;97529.72;;;-0.56;89.63
57779;BME280;43608;49.486;9.640;2022-12-10T00:10:54;97533.28;;;-0.53;89.51
57779;BME280;43608;49.486;9.640;2022-12-10T00:11:25;97548.13;;;-0.47;89.48
57779;BME280;43608;49.486;9.640;2022-12-10T00:11:56;97548.06;;;-0.50;89.78
57779;BME280;43608;49.486;9.640;2022-12-10T00:12:26;97517.41;;;-0.65;89.39
57779;BME280;43608;49.486;9.640;2022-12-10T00:12:57;97541.88;;;-0.57;89.19
57779;BME280;43608;49.486;9.640;2022-12-10T00:13:27;97534.03;;;-0.58;89.70
57779;BME280;43608;49.486;9.640;2022-12-10T00:13:58;97549.84;;;-0.49;89.57
57779;BME280;43608;49.486;9.640;2022-12-10T00:14:29;97541.03;;;-0.56;89.71
57779;BME280;43608;49.486;9.640;2022-12-10T00:15:00;97547.94;;;-0.56;89.57
57779;BME280;43608;49.486;9.640;2022-12-10T00:15:30;97526.06;;;-0.66;89.35
57779;BME280;43608;49.486;9.640;2022-12-10T00:16:02;97547.09;;;-0.55;89.26
57779;BME280;43608;49.486;9.640;2022-12-10T00:16:33;97553.25;;;-0.52;89.28
57779;BME280;43608;49.486;9.640;2022-12-10T00:17:04;97543.56;;;-0.59;89.41
57779;BME280;43608;49.486;9.640;2022-12-10T00:17:34;97550.56;;;-0.55;89.62
57779;BME280;43608;49.486;9.640;2022-12-10T00:18:05;97550.63;;;-0.53;89.74
57779;BME280;43608;49.486;9.640;2022-12-10T00:18:36;97549.81;;;-0.51;89.40
57779;BME280;43608;49.486;9.640;2022-12-10T00:19:06;97553.25;;;-0.52;89.78
57779;BME280;43608;49.486;9.640;2022-12-10T00:19:37;97555.03;;;-0.51;89.77
57779;BME280;43608;49.486;9.640;2022-12-10T00:20:08;97538.28;;;-0.62;89.49
57779;BME280;43608;49.486;9.640;2022-12-10T00:20:38;97545.34;;;-0.56;89.39
57779;BME280;43608;49.486;9.640;2022-12-10T00:21:12;97559.34;;;-0.50;89.30
57779;BME280;43608;49.486;9.640;2022-12-10T00:21:44;97537.38;;;-0.64;89.40
57779;BME280;43608;49.486;9.640;2022-12-10T00:22:15;97550.56;;;-0.55;89.45
57779;BME280;43608;49.486;9.640;2022-12-10T00:22:45;97539.16;;;-0.61;89.63
57779;BME280;43608;49.486;9.640;2022-12-10T00:23:16;97560.25;;;-0.49;89.19
57779;BME280;43608;49.486;9.640;2022-12-10T00:23:46;97531.28;;;-0.64;89.14
57779;BME280;43608;49.486;9.640;2022-12-10T00:24:17;97549.72;;;-0.55;89.63
57779;BME280;43608;49.486;9.640;2022-12-10T00:24:47;97555.84;;;-0.53;89.07
57779;BME280;43608;49.486;9.640;2022-12-10T00:25:18;97535.66;;;-0.63;89.40
57779;BME280;43608;49.486;9.640;2022-12-10T00:25:48;97536.63;;;-0.58;89.35
57779;BME280;43608;49.486;9.640;2022-12-10T00:26:53;97555.91;;;-0.48;89.62
57779;BME280;43608;49.486;9.640;2022-12-10T00:27:23;97557.66;;;-0.49;89.59
57779;BME280;43608;49.486;9.640;2022-12-10T00:27:54;97546.25;;;-0.56;89.64
57779;BME280;43608;49.486;9.640;2022-12-10T00:28:24;97555.03;;;-0.49;89.46
57779;BME280;43608;49.486;9.640;2022-12-10T00:28:55;97551.63;;;-0.46;89.50
57779;BME280;43608;49.486;9.640;2022-12-10T00:29:25;97544.56;;;-0.52;89.64
57779;BME280;43608;49.486;9.640;2022-12-10T00:29:56;97541.91;;;-0.55;89.06
57779;BME280;43608;49.486;9.640;2022-12-10T00:30:26;97521.75;;;-0.64;89.14
57779;BME280;43608;49.486;9.640;2022-12-10T00:31:02;97545.44;;;-0.52;89.01
57779;BME280;43608;49.486;9.640;2022-12-10T00:31:35;97556.88;;;-0.45;88.95
57779;BME280;43608;49.486;9.640;2022-12-10T00:32:06;97547.25;;;-0.47;89.05
57779;BME280;43608;49.486;9.640;2022-12-10T00:32:36;97532.31;;;-0.58;89.02
57779;BME280;43608;49.486;9.640;2022-12-10T00:33:06;97555.09;;;-0.46;88.89
57779;BME280;43608;49.486;9.640;2022-12-10T00:33:37;97555.09;;;-0.46;88.98
57779;BME280;43608;49.486;9.640;2022-12-10T00:34:09;97550.72;;;-0.47;88.91
57779;BME280;43608;49.486;9.640;2022-12-10T00:34:40;97549.88;;;-0.47;88.79
57779;BME280;43608;49.486;9.640;2022-12-10T00:35:10;97552.50;;;-0.46;89.35
57779;BME280;43608;49.486;9.640;2022-12-10T00:35:40;97539.28;;;-0.57;88.99
57779;BME280;43608;49.486;9.640;2022-12-10T00:36:23;97556.81;;;-0.48;88.67
57779;BME280;43608;49.486;9.640;2022-12-10T00:36:53;97546.16;;;-0.59;89.21
57779;BME280;43608;49.486;9.640;2022-12-10T00:37:24;97541.75;;;-0.61;88.82
57779;BME280;43608;49.486;9.640;2022-12-10T00:37:54;97537.50;;;-0.58;89.10
57779;BME280;43608;49.486;9.640;2022-12-10T00:38:24;97547.06;;;-0.58;88.77
57779;BME280;43608;49.486;9.640;2022-12-10T00:38:55;97561.13;;;-0.48;89.25
57779;BME280;43608;49.486;9.640;2022-12-10T00:39:26;97563.72;;;-0.48;88.87
57779;BME280;43608;49.486;9.640;2022-12-10T00:39:56;97562.03;;;-0.48;88.97
57779;BME280;43608;49.486;9.640;2022-12-10T00:40:27;97554.06;;;-0.54;89.07
57779;BME280;43608;49.486;9.640;2022-12-10T00:40:58;97559.34;;;-0.50;88.68
57779;BME280;43608;49.486;9.640;2022-12-10T00:41:29;97549.72;;;-0.54;89.07
57779;BME280;43608;49.486;9.640;2022-12-10T00:41:59;97558.50;;;-0.50;89.12
57779;BME280;43608;49.486;9.640;2022-12-10T00:42:30;97538.28;;;-0.62;89.02
57779;BME280;43608;49.486;9.640;2022-12-10T00:43:00;97548.84;;;-0.56;88.67
57779;BME280;43608;49.486;9.640;2022-12-10T00:43:30;97563.72;;;-0.48;88.83
57779;BME280;43608;49.486;9.640;2022-12-10T00:44:01;97553.19;;;-0.55;88.80
57779;BME280;43608;49.486;9.640;2022-12-10T00:44:31;97540.91;;;-0.62;89.08
57779;BME280;43608;49.486;9.640;2022-12-10T00:45:02;97554.97;;;-0.52;89.03
57779;BME280;43608;49.486;9.640;2022-12-10T00:45:33;97547.91;;;-0.58;88.95
57779;BME280;43608;49.486;9.640;2022-12-10T00:46:04;97551.47;;;-0.54;88.85
57779;BME280;43608;49.486;9.640;2022-12-10T00:46:34;97561.97;;;-0.50;89.21
57779;BME280;43608;49.486;9.640;2022-12-10T00:47:05;97556.69;;;-0.53;89.14
57779;BME280;43608;49.486;9.640;2022-12-10T00:47:35;97554.91;;;-0.55;89.25
57779;BME280;43608;49.486;9.640;2022-12-10T00:48:05;97556.69;;;-0.53;88.93
57779;BME280;43608;49.486;9.640;2022-12-10T00:48:36;97549.72;;;-0.54;89.30
57779;BME280;43608;49.486;9.640;2022-12-10T00:49:06;97546.25;;;-0.56;88.93
57779;BME280;43608;49.486;9.640;2022-12-10T00:49:37;97539.16;;;-0.61;89.18
57779;BME280;43608;49.486;9.640;2022-12-10T00:50:07;97555.84;;;-0.53;89.25
57779;BME280;43608;49.486;9.640;2022-12-10T00:50:38;97548.78;;;-0.57;89.16
57779;BME280;43608;49.486;9.640;2022-12-10T00:51:11;97561.09;;;-0.50;89.24
57779;BME280;43608;49.486;9.640;2022-12-10T00:51:42;97551.38;;;-0.57;89.18
57779;BME280;43608;49.486;9.640;2022-12-10T00:52:12;97540.94;;;-0.59;89.11
57779;BME280;43608;49.486;9.640;2022-12-10T00:52:42;97557.63;;;-0.51;89.29
57779;BME280;43608;49.486;9.640;2022-12-10T00:53:13;97559.34;;;-0.50;89.25
57779;BME280;43608;49.486;9.640;2022-12-10T00:53:45;97536.53;;;-0.63;89.08
57779;BME280;43608;49.486;9.640;2022-12-10T00:54:16;97504.88;;;-0.83;89.14
57779;BME280;43608;49.486;9.640;2022-12-10T00:54:46;97555.03;;;-0.49;88.85
57779;BME280;43608;49.486;9.640;2022-12-10T00:55:16;97535.69;;;-0.62;88.92
57779;BME280;43608;49.486;9.640;2022-12-10T00:55:47;97550.63;;;-0.53;88.87
57779;BME280;43608;49.486;9.640;2022-12-10T00:56:20;97552.44;;;-0.49;88.93
57779;BME280;43608;49.486;9.640;2022-12-10T00:56:51;97539.16;;;-0.61;88.88
57779;BME280;43608;49.486;9.640;2022-12-10T00:57:21;97547.09;;;-0.55;88.77
57779;BME280;43608;49.486;9.640;2022-12-10T00:57:51;97559.34;;;-0.50;88.81
57779;BME280;43608;49.486;9.640;2022-12-10T00:58:22;97551.53;;;-0.50;88.85
57779;BME280;43608;49.486;9.640;2022-12-10T00:58:54;97536.56;;;-0.61;89.16
57779;BME280;43608;49.486;9.640;2022-12-10T00:59:24;97558.50;;;-0.50;88.86
57779;BME280;43608;49.486;9.640;2022-12-10T00:59:54;97531.31;;;-0.63;88.81
57779;BME280;43608;49.486;9.640;2022-12-10T01:00:25;97559.34;;;-0.50;89.16
57779;BME280;43608;49.486;9.640;2022-12-10T01:01:12;97539.22;;;-0.60;88.84
57779;BME280;43608;49.486;9.640;2022-12-10T01:01:44;97561.09;;;-0.50;88.87
57779;BME280;43608;49.486;9.640;2022-12-10T01:02:14;97494.41;;;-0.86;89.05
57779;BME280;43608;49.486;9.640;2022-12-10T01:02:45;97540.03;;;-0.62;88.91
57779;BME280;43608;49.486;9.640;2022-12-10T01:03:15;97566.31;;;-0.50;88.81
57779;BME280;43608;49.486;9.640;2022-12-10T01:03:47;97557.63;;;-0.51;89.08
57779;BME280;43608;49.486;9.640;2022-12-10T01:04:18;97553.16;;;-0.56;88.77
57779;BME280;43608;49.486;9.640;2022-12-10T01:04:52;97539.13;;;-0.63;88.59
57779;BME280;43608;49.486;9.640;2022-12-10T01:05:24;97559.31;;;-0.53;89.08
57779;BME280;43608;49.486;9.640;2022-12-10T01:05:54;97554.94;;;-0.54;88.93
57779;BME280;43608;49.486;9.640;2022-12-10T01:06:27;97561.91;;;-0.53;89.04
57779;BME280;43608;49.486;9.640;2022-12-10T01:06:58;97565.44;;;-0.51;88.93
57779;BME280;43608;49.486;9.640;2022-12-10T01:07:29;97567.09;;;-0.53;88.89
57779;BME280;43608;49.486;9.640;2022-12-10T01:08:00;97564.47;;;-0.54;88.88
57779;BME280;43608;49.486;9.640;2022-12-10T01:08:30;97560.09;;;-0.57;89.17
57779;BME280;43608;49.486;9.640;2022-12-10T01:09:04;97567.97;;;-0.52;88.94
57779;BME280;43608;49.486;9.640;2022-12-10T01:09:35;97560.09;;;-0.57;88.93
57779;BME280;43608;49.486;9.640;2022-12-10T01:10:05;97548.72;;;-0.60;89.28
57779;BME280;43608;49.486;9.640;2022-12-10T01:10:36;97566.25;;;-0.53;88.94
57779;BME280;43608;49.486;9.640;2022-12-10T01:11:07;97559.16;;;-0.59;88.97
57779;BME280;43608;49.486;9.640;2022-12-10T01:11:39;97556.66;;;-0.54;88.68
57779;BME280;43608;49.486;9.640;2022-12-10T01:12:10;97552.16;;;-0.61;88.87
57779;BME280;43608;49.486;9.640;2022-12-10T01:12:40;97553.91;;;-0.62;89.16
57779;BME280;43608;49.486;9.640;2022-12-10T01:13:11;97553.03;;;-0.62;88.58
57779;BME280;43608;49.486;9.640;2022-12-10T01:13:42;97562.69;;;-0.57;88.83
57779;BME280;43608;49.486;9.640;2022-12-10T01:14:20;97559.16;;;-0.59;88.89
57779;BME280;43608;49.486;9.640;2022-12-10T01:14:51;97560.94;;;-0.56;88.98
57779;BME280;43608;49.486;9.640;2022-12-10T01:15:21;97558.28;;;-0.61;88.70
57779;BME280;43608;49.486;9.640;2022-12-10T01:15:51;97557.28;;;-0.66;89.07
57779;BME280;43608;49.486;9.640;2022-12-10T01:16:23;97559.94;;;-0.63;89.00
57779;BME280;43608;49.486;9.640;2022-12-10T01:16:56;97566.13;;;-0.58;89.21
57779;BME280;43608;49.486;9.640;2022-12-10T01:17:27;97557.38;;;-0.61;88.74
57779;BME280;43608;49.486;9.640;2022-12-10T01:17:57;97563.44;;;-0.62;88.94
57779;BME280;43608;49.486;9.640;2022-12-10T01:18:27;97565.09;;;-0.66;89.24
57779;BME280;43608;49.486;9.640;2022-12-10T01:18:59;97560.88;;;-0.61;89.38
57779;BME280;43608;49.486;9.640;2022-12-10T01:19:31;97572.94;;;-0.64;88.69
57779;BME280;43608;49.486;9.640;2022-12-10T01:20:02;97569.47;;;-0.65;88.91
57779;BME280;43608;49.486;9.640;2022-12-10T01:20:35;97566.78;;;-0.68;89.29
57779;BME280;43608;49.486;9.640;2022-12-10T01:21:10;97551.84;;;-0.77;89.20
57779;BME280;43608;49.486;9.640;2022-12-10T01:21:41;97582.56;;;-0.60;88.91
57779;BME280;43608;49.486;9.640;2022-12-10T01:22:11;97572.81;;;-0.69;89.13
57779;BME280;43608;49.486;9.640;2022-12-10T01:22:41;97580.75;;;-0.64;88.78
57779;BME280;43608;49.486;9.640;2022-12-10T01:23:12;97564.13;;;-0.71;89.07
57779;BME280;43608;49.486;9.640;2022-12-10T01:23:48;97582.56;;;-0.60;89.26
57779;BME280;43608;49.486;9.640;2022-12-10T01:24:24;97591.19;;;-0.61;88.96
57779;BME280;43608;49.486;9.640;2022-12-10T01:24:54;97577.16;;;-0.70;89.02
57779;BME280;43608;49.486;9.640;2022-12-10T01:25:25;97579.88;;;-0.65;89.33
57779;BME280;43608;49.486;9.640;2022-12-10T01:25:59;97595.53;;;-0.62;89.06
57779;BME280;43608;49.486;9.640;2022-12-10T01:26:32;97589.50;;;-0.61;89.44
57779;BME280;43608;49.486;9.640;2022-12-10T01:27:02;97586.78;;;-0.65;89.17
57779;BME280;43608;49.486;9.640;2022-12-10T01:27:33;97572.72;;;-0.74;89.44
57779;BME280;43608;49.486;9.640;2022-12-10T01:28:03;97586.63;;;-0.72;89.42
57779;BME280;43608;49.486;9.640;2022-12-10T01:28:36;97599.09;;;-0.58;89.24
57779;BME280;43608;49.486;9.640;2022-12-10T01:29:06;97601.69;;;-0.58;89.64
57779;BME280;43608;49.486;9.640;2022-12-10T01:29:37;97585.00;;;-0.67;89.37
57779;BME280;43608;49.486;9.640;2022-12-10T01:30:08;97592.09;;;-0.61;89.19
57779;BME280;43608;49.486;9.640;2022-12-10T01:30:38;97585.16;;;-0.60;89.55
57779;BME280;43608;49.486;9.640;2022-12-10T01:31:15;97586.94;;;-0.59;89.08
57779;BME280;43608;49.486;9.640;2022-12-10T01:31:50;97596.53;;;-0.57;89.54
57779;BME280;43608;49.486;9.640;2022-12-10T01:32:21;97585.09;;;-0.63;89.25
57779;BME280;43608;49.486;9.640;2022-12-10T01:32:51;97601.72;;;-0.57;89.26
57779;BME280;43608;49.486;9.640;2022-12-10T01:33:22;97593.03;;;-0.57;89.27
57779;BME280;43608;49.486;9.640;2022-12-10T01:33:53;97597.38;;;-0.56;89.04
57779;BME280;43608;49.486;9.640;2022-12-10T01:34:24;97600.00;;;-0.56;88.86
57779;BME280;43608;49.486;9.640;2022-12-10T01:34:54;97600.00;;;-0.56;89.32
57779;BME280;43608;49.486;9.640;2022-12-10T01:35:25;97606.94;;;-0.57;89.13
57779;BME280;43608;49.486;9.640;2022-12-10T01:35:56;97592.13;;;-0.59;89.16
57779;BME280;43608;49.486;9.640;2022-12-10T01:36:32;97606.03;;;-0.57;89.19
57779;BME280;43608;49.486;9.640;2022-12-10T01:37:02;97591.13;;;-0.66;89.40
57779;BME280;43608;49.486;9.640;2022-12-10T01:37:33;97609.56;;;-0.55;88.89
57779;BME280;43608;49.486;9.640;2022-12-10T01:38:03;97599.06;;;-0.60;89.25
57779;BME280;43608;49.486;9.640;2022-12-10T01:38:34;97585.00;;;-0.68;89.30
57779;BME280;43608;49.486;9.640;2022-12-10T01:39:07;97613.09;;;-0.53;89.14
57779;BME280;43608;49.486;9.640;2022-12-10T01:39:38;97601.69;;;-0.58;89.26
57779;BME280;43608;49.486;9.640;2022-12-10T01:40:09;97592.94;;;-0.62;89.09
57779;BME280;43608;49.486;9.640;2022-12-10T01:40:40;97578.09;;;-0.68;88.99
57779;BME280;43608;49.486;9.640;2022-12-10T01:41:16;97602.69;;;-0.53;89.17
57779;BME280;43608;49.486;9.640;2022-12-10T01:41:53;97600.94;;;-0.53;89.00
57779;BME280;43608;49.486;9.640;2022-12-10T01:42:24;97590.38;;;-0.60;89.21
57779;BME280;43608;49.486;9.640;2022-12-10T01:42:54;97600.09;;;-0.53;88.88
57779;BME280;43608;49.486;9.640;2022-12-10T01:43:25;97590.41;;;-0.57;89.06
57779;BME280;43608;49.486;9.640;2022-12-10T01:44:57;97611.41;;;-0.50;88.80
57779;BME280;43608;49.486;9.640;2022-12-10T01:45:28;97598.28;;;-0.56;88.89
57779;BME280;43608;49.486;9.640;2022-12-10T01:45:58;97598.34;;;-0.53;88.71
57779;BME280;43608;49.486;9.640;2022-12-10T01:46:33;97608.81;;;-0.50;88.74
57779;BME280;43608;49.486;9.640;2022-12-10T01:47:04;97564.03;;;-0.74;88.94
57779;BME280;43608;49.486;9.640;2022-12-10T01:47:35;97596.56;;;-0.54;88.94
57779;BME280;43608;49.486;9.640;2022-12-10T01:48:06;97604.50;;;-0.49;88.96
57779;BME280;43608;49.486;9.640;2022-12-10T01:48:36;97599.28;;;-0.51;89.07
57779;BME280;43608;49.486;9.640;2022-12-10T01:49:24;97610.66;;;-0.45;88.58
57779;BME280;43608;49.486;9.640;2022-12-10T01:49:57;97606.31;;;-0.45;88.99
57779;BME280;43608;49.486;9.640;2022-12-10T01:50:27;97592.31;;;-0.52;88.77
57779;BME280;43608;49.486;9.640;2022-12-10T01:50:58;97592.31;;;-0.50;88.73
57779;BME280;43608;49.486;9.640;2022-12-10T01:51:31;97592.28;;;-0.53;88.76
57779;BME280;43608;49.486;9.640;2022-12-10T01:52:04;97601.09;;;-0.46;89.17
57779;BME280;43608;49.486;9.640;2022-12-10T01:52:35;97599.44;;;-0.43;88.59
57779;BME280;43608;49.486;9.640;2022-12-10T01:53:06;97578.28;;;-0.58;88.50
57779;BME280;43608;49.486;9.640;2022-12-10T01:53:37;97605.50;;;-0.42;88.62
57779;BME280;43608;49.486;9.640;2022-12-10T01:54:10;97604.69;;;-0.41;88.90
57779;BME280;43608;49.486;9.640;2022-12-10T01:54:44;97603.75;;;-0.43;88.70
57779;BME280;43608;49.486;9.640;2022-12-10T01:56:10;97589.63;;;-0.55;88.56
57779;BME280;43608;49.486;9.640;2022-12-10T01:56:43;97609.84;;;-0.43;88.64
57779;BME280;43608;49.486;9.640;2022-12-10T01:57:33;97613.34;;;-0.41;88.83
57779;BME280;43608;49.486;9.640;2022-12-10T01:58:03;97596.75;;;-0.46;88.77
57779;BME280;43608;49.486;9.640;2022-12-10T01:58:34;97603.69;;;-0.46;88.31
57779;BME280;43608;49.486;9.640;2022-12-10T01:59:05;97615.94;;;-0.42;88.79
57779;BME280;43608;49.486;9.640;2022-12-10T01:59:36;97608.09;;;-0.44;88.37
57779;BME280;43608;49.486;9.640;2022-12-10T02:00:08;97604.53;;;-0.47;88.63
57779;BME280;43608;49.486;9.640;2022-12-10T02:00:46;97609.78;;;-0.44;88.38
57779;BME280;43608;49.486;9.640;2022-12-10T02:01:26;97618.66;;;-0.38;88.55
57779;BME280;43608;49.486;9.640;2022-12-10T02:02:08;97614.28;;;-0.39;88.41
57779;BME280;43608;49.486;9.640;2022-12-10T02:02:56;97614.16;;;-0.43;88.38
57779;BME280;43608;49.486;9.640;2022-12-10T02:04:36;97606.28;;;-0.48;88.81
57779;BME280;43608;49.486;9.640;2022-12-10T02:05:28;97624.72;;;-0.37;88.84
57779;BME280;43608;49.486;9.640;2022-12-10T02:06:18;97622.91;;;-0.40;88.48
57779;BME280;43608;49.486;9.640;2022-12-10T02:08:22;97596.66;;;-0.51;88.37
57779;BME280;43608;49.486;9.640;2022-12-10T02:09:52;97617.78;;;-0.37;88.35
57779;BME280;43608;49.486;9.640;2022-12-10T02:10:56;97624.72;;;-0.37;88.33
57779;BME280;43608;49.486;9.640;2022-12-10T02:11:29;97612.47;;;-0.41;88.50
57779;BME280;43608;49.486;9.640;2022-12-10T02:13:01;97615.91;;;-0.44;88.30
57779;BME280;43608;49.486;9.640;2022-12-10T02:13:43;97622.94;;;-0.38;88.40
57779;BME280;43608;49.486;9.640;2022-12-10T02:14:21;97626.44;;;-0.38;88.67
57779;BME280;43608;49.486;9.640;2022-12-10T02:15:15;97623.84;;;-0.38;88.75
57779;BME280;43608;49.486;9.640;2022-12-10T02:15:51;97619.44;;;-0.40;88.70
57779;BME280;43608;49.486;9.640;2022-12-10T02:16:34;97614.09;;;-0.46;88.67
57779;BME280;43608;49.486;9.640;2022-12-10T02:17:32;97622.09;;;-0.39;88.70
57779;BME280;43608;49.486;9.640;2022-12-10T02:18:08;97622.97;;;-0.37;88.88
57779;BME280;43608;49.486;9.640;2022-12-10T02:18:56;97618.59;;;-0.39;88.60
57779;BME280;43608;49.486;9.640;2022-12-10T02:20:29;97617.72;;;-0.40;88.88
57779;BME280;43608;49.486;9.640;2022-12-10T02:21:08;97626.47;;;-0.36;88.92
57779;BME280;43608;49.486;9.640;2022-12-10T02:21:44;97618.56;;;-0.41;88.45
57779;BME280;43608;49.486;9.640;2022-12-10T02:22:18;97595.72;;;-0.54;88.60
57779;BME280;43608;49.486;9.640;2022-12-10T02:22:59;97572.94;;;-0.64;88.68
57779;BME280;43608;49.486;9.640;2022-12-10T02:23:38;97602.75;;;-0.50;88.54
57779;BME280;43608;49.486;9.640;2022-12-10T02:24:13;97625.66;;;-0.34;88.49
57779;BME280;43608;49.486;9.640;2022-12-10T02:24:47;97635.25;;;-0.32;88.24
57779;BME280;43608;49.486;9.640;2022-12-10T02:25:21;97625.66;;;-0.34;88.39
57779;BME280;43608;49.486;9.640;2022-12-10T02:26:02;97631.75;;;-0.33;88.46
57779;BME280;43608;49.486;9.640;2022-12-10T02:26:49;97616.88;;;-0.39;88.92
57779;BME280;43608;49.486;9.640;2022-12-10T02:28:44;97623.97;;;-0.31;88.88
57779;BME280;43608;49.486;9.640;2022-12-10T02:29:24;97604.66;;;-0.43;88.43
57779;BME280;43608;49.486;9.640;2022-12-10T02:29:57;97606.50;;;-0.36;88.93
57779;BME280;43608;49.486;9.640;2022-12-10T02:30:31;97625.72;;;-0.30;88.40
57779;BME280;43608;49.486;9.640;2022-12-10T02:31:04;97608.22;;;-0.38;88.73
57779;BME280;43608;49.486;9.640;2022-12-10T02:31:36;97609.03;;;-0.40;88.52
57779;BME280;43608;49.486;9.640;2022-12-10T02:32:15;97620.47;;;-0.32;88.82
57779;BME280;43608;49.486;9.640;2022-12-10T02:32:48;97610.84;;;-0.38;88.93
57779;BME280;43608;49.486;9.640;2022-12-10T02:33:22;97605.69;;;-0.35;88.58
57779;BME280;43608;49.486;9.640;2022-12-10T02:33:56;97611.75;;;-0.34;88.40
57779;BME280;43608;49.486;9.640;2022-12-10T02:34:30;97621.41;;;-0.30;88.57
57779;BME280;43608;49.486;9.640;2022-12-10T02:35:06;97605.53;;;-0.41;88.53
57779;BME280;43608;49.486;9.640;2022-12-10T02:35:40;97615.34;;;-0.29;88.80
57779;BME280;43608;49.486;9.640;2022-12-10T02:36:13;97608.41;;;-0.30;88.86
57779;BME280;43608;49.486;9.640;2022-12-10T02:36:47;97611.91;;;-0.26;88.94
57779;BME280;43608;49.486;9.640;2022-12-10T02:37:30;97604.84;;;-0.34;88.45
57779;BME280;43608;49.486;9.640;2022-12-10T02:38:07;97598.72;;;-0.36;88.45
57779;BME280;43608;49.486;9.640;2022-12-10T02:38:40;97610.09;;;-0.30;88.78
57779;BME280;43608;49.486;9.640;2022-12-10T02:39:14;97617.13;;;-0.26;88.53
57779;BME280;43608;49.486;9.640;2022-12-10T02:39:50;97609.16;;;-0.34;88.78
57779;BME280;43608;49.486;9.640;2022-12-10T02:40:30;97607.47;;;-0.32;88.72
57779;BME280;43608;49.486;9.640;2022-12-10T02:41:05;97621.53;;;-0.24;88.52
57779;BME280;43608;49.486;9.640;2022-12-10T02:41:41;97628.47;;;-0.24;88.66
57779;BME280;43608;49.486;9.640;2022-12-10T02:42:14;97600.44;;;-0.36;88.64
57779;BME280;43608;49.486;9.640;2022-12-10T02:42:48;97602.16;;;-0.37;88.36
57779;BME280;43608;49.486;9.640;2022-12-10T02:43:21;97611.00;;;-0.30;88.90
57779;BME280;43608;49.486;9.640;2022-12-10T02:43:54;97611.88;;;-0.29;88.70
57779;BME280;43608;49.486;9.640;2022-12-10T02:44:28;97613.69;;;-0.25;88.45
57779;BME280;43608;49.486;9.640;2022-12-10T02:44:59;97609.28;;;-0.28;88.50
57779;BME280;43608;49.486;9.640;2022-12-10T02:45:31;97597.84;;;-0.36;88.46
57779;BME280;43608;49.486;9.640;2022-12-10T02:46:03;97612.81;;;-0.26;88.53
57779;BME280;43608;49.486;9.640;2022-12-10T02:46:36;97617.22;;;-0.23;88.78
57779;BME280;43608;49.486;9.640;2022-12-10T02:47:08;97606.72;;;-0.25;88.78
57779;BME280;43608;49.486;9.640;2022-12-10T02:47:41;97595.31;;;-0.31;88.77
57779;BME280;43608;49.486;9.640;2022-12-10T02:48:12;97608.53;;;-0.22;88.37
57779;BME280;43608;49.486;9.640;2022-12-10T02:48:45;97605.97;;;-0.21;88.83
57779;BME280;43608;49.486;9.640;2022-12-10T02:49:17;97610.31;;;-0.20;88.62
57779;BME280;43608;49.486;9.640;2022-12-10T02:49:50;97600.78;;;-0.21;88.63
57779;BME280;43608;49.486;9.640;2022-12-10T02:50:23;97597.25;;;-0.23;88.80
57779;BME280;43608;49.486;9.640;2022-12-10T02:50:54;97591.97;;;-0.26;88.31
57779;BME280;43608;49.486;9.640;2022-12-10T02:51:24;97586.78;;;-0.26;88.52
57779;BME280;43608;49.486;9.640;2022-12-10T02:51:55;97602.59;;;-0.17;88.61
57779;BME280;43608;49.486;9.640;2022-12-10T02:52:25;97596.44;;;-0.20;88.13
57779;BME280;43608;49.486;9.640;2022-12-10T02:52:55;97596.41;;;-0.22;87.98
57779;BME280;43608;49.486;9.640;2022-12-10T02:53:26;97610.44;;;-0.15;88.21
57779;BME280;43608;49.486;9.640;2022-12-10T02:54:05;97606.97;;;-0.15;88.27
57779;BME280;43608;49.486;9.640;2022-12-10T02:54:42;97612.16;;;-0.15;88.32
57779;BME280;43608;49.486;9.640;2022-12-10T02:55:13;97586.66;;;-0.30;88.35
57779;BME280;43608;49.486;9.640;2022-12-10T02:57:00;97593.81;;;-0.20;88.50
57779;BME280;43608;49.486;9.640;2022-12-10T02:59:08;97604.34;;;-0.15;87.96
57779;BME280;43608;49.486;9.640;2022-12-10T02:59:52;97582.34;;;-0.30;88.02
57779;BME280;43608;49.486;9.640;2022-12-10T03:00:24;97580.63;;;-0.29;88.25
57779;BME280;43608;49.486;9.640;2022-12-10T03:01:24;97608.66;;;-0.16;88.24
57779;BME280;43608;49.486;9.640;2022-12-10T03:03:49;97610.41;;;-0.17;88.03
57779;BME280;43608;49.486;9.640;2022-12-10T03:04:28;97600.78;;;-0.21;88.00
57779;BME280;43608;49.486;9.640;2022-12-10T03:05:20;97606.91;;;-0.17;88.53
57779;BME280;43608;49.486;9.640;2022-12-10T03:06:22;97607.78;;;-0.17;88.42
57779;BME280;43608;49.486;9.640;2022-12-10T03:07:03;97599.03;;;-0.20;87.85
57779;BME280;43608;49.486;9.640;2022-12-10T03:07:49;97607.78;;;-0.17;88.20
57779;BME280;43608;49.486;9.640;2022-12-10T03:08:33;97581.47;;;-0.30;87.96
57779;BME280;43608;49.486;9.640;2022-12-10T03:09:08;97609.56;;;-0.15;88.38
57779;BME280;43608;49.486;9.640;2022-12-10T03:09:53;97607.81;;;-0.15;87.88
57779;BME280;43608;49.486;9.640;2022-12-10T03:10:37;97598.19;;;-0.19;88.32